sensor_id;sensor_type;location;lat;lon;timestamp;P1;durP1;ratioP1;P2;durP2;ratioP2
61640;SDS011;62201;49.966;8.342;2022-12-20T00:00:55;89.33;;;47.10;;
61640;SDS011;62201;49.966;8.342;2022-12-20T00:03:21;88.63;;;44.97;;
61640;SDS011;62201;49.966;8.342;2022-12-20T00:05:46;89.63;;;45.47;;
61640;SDS011;62201;49.966;8.342;2022-12-20T00:08:13;88.83;;;46.03;;
61640;SDS011;62201;49.966;8.342;2022-12-20T00:10:40;87.97;;;45.20;;
61640;SDS011;62201;49.966;8.342;2022-12-20T00:13:07;82.43;;;44.37;;
61640;SDS011;62201;49.966;8.342;2022-12-20T00:15:33;90.43;;;45.17;;
61640;SDS011;62201;49.966;8.342;2022-12-20T00:17:59;88.10;;;46.17;;
61640;SDS011;62201;49.966;8.342;2022-12-20T00:20:25;89.23;;;45.20;;
61640;SDS011;62201;49.966;8.342;2022-12-20T00:22:51;87.23;;;44.77;;
61640;SDS011;62201;49.966;8.342;2022-12-20T00:25:16;89.60;;;45.73;;
61640;SDS011;62201;49.966;8.342;2022-12-20T00:27:42;90.90;;;45.60;;
61640;SDS011;62201;49.966;8.342;2022-12-20T00:30:08;87.97;;;45.17;;
61640;SDS011;62201;49.966;8.342;2022-12-20T00:32:33;87.90;;;43.20;;
61640;SDS011;62201;49.966;8.342;2022-12-20T00:34:59;84.13;;;43.93;;
61640;SDS011;62201;49.966;8.342;2022-12-20T00:37:24;82.67;;;43.37;;
61640;SDS011;62201;49.966;8.342;2022-12-20T00:39:50;80.63;;;43.70;;
61640;SDS011;62201;49.966;8.342;2022-12-20T00:42:15;79.20;;;42.43;;
61640;SDS011;62201;49.966;8.342;2022-12-20T00:44:41;91.57;;;45.60;;
61640;SDS011;62201;49.966;8.342;2022-12-20T00:47:06;83.17;;;44.77;;
61640;SDS011;62201;49.966;8.342;2022-12-20T00:49:31;84.87;;;44.83;;
61640;SDS011;62201;49.966;8.342;2022-12-20T00:51:57;81.93;;;42.53;;
61640;SDS011;62201;49.966;8.342;2022-12-20T00:54:22;87.23;;;44.83;;
61640;SDS011;62201;49.966;8.342;2022-12-20T00:56:48;81.20;;;43.17;;
61640;SDS011;62201;49.966;8.342;2022-12-20T00:59:13;83.40;;;42.73;;
61640;SDS011;62201;49.966;8.342;2022-12-20T01:01:38;85.23;;;43.93;;
61640;SDS011;62201;49.966;8.342;2022-12-20T01:04:04;84.03;;;44.77;;
61640;SDS011;62201;49.966;8.342;2022-12-20T01:06:29;93.00;;;45.47;;
61640;SDS011;62201;49.966;8.342;2022-12-20T01:08:56;97.93;;;47.33;;
61640;SDS011;62201;49.966;8.342;2022-12-20T01:11:22;88.30;;;44.63;;
61640;SDS011;62201;49.966;8.342;2022-12-20T01:13:54;90.37;;;47.00;;
61640;SDS011;62201;49.966;8.342;2022-12-20T01:16:23;91.97;;;46.23;;
61640;SDS011;62201;49.966;8.342;2022-12-20T01:18:51;93.73;;;46.00;;
61640;SDS011;62201;49.966;8.342;2022-12-20T01:21:18;93.63;;;47.80;;
61640;SDS011;62201;49.966;8.342;2022-12-20T01:23:45;98.90;;;48.57;;
61640;SDS011;62201;49.966;8.342;2022-12-20T01:26:13;87.30;;;46.77;;
61640;SDS011;62201;49.966;8.342;2022-12-20T01:28:43;90.37;;;45.90;;
61640;SDS011;62201;49.966;8.342;2022-12-20T01:31:15;81.60;;;44.57;;
61640;SDS011;62201;49.966;8.342;2022-12-20T01:33:42;89.90;;;46.28;;
61640;SDS011;62201;49.966;8.342;2022-12-20T01:36:16;102.97;;;47.07;;
61640;SDS011;62201;49.966;8.342;2022-12-20T01:38:43;96.63;;;47.97;;
61640;SDS011;62201;49.966;8.342;2022-12-20T01:41:16;86.93;;;45.77;;
61640;SDS011;62201;49.966;8.342;2022-12-20T01:43:53;99.47;;;47.33;;
61640;SDS011;62201;49.966;8.342;2022-12-20T01:46:22;96.77;;;46.40;;
61640;SDS011;62201;49.966;8.342;2022-12-20T01:49:05;103.33;;;46.90;;
61640;SDS011;62201;49.966;8.342;2022-12-20T01:51:40;96.70;;;46.30;;
61640;SDS011;62201;49.966;8.342;2022-12-20T01:54:18;93.90;;;46.30;;
61640;SDS011;62201;49.966;8.342;2022-12-20T01:56:51;89.90;;;46.60;;
61640;SDS011;62201;49.966;8.342;2022-12-20T01:59:21;97.83;;;47.37;;
61640;SDS011;62201;49.966;8.342;2022-12-20T02:01:47;88.80;;;45.43;;
61640;SDS011;62201;49.966;8.342;2022-12-20T02:04:13;97.17;;;46.87;;
61640;SDS011;62201;49.966;8.342;2022-12-20T02:06:38;104.33;;;49.33;;
61640;SDS011;62201;49.966;8.342;2022-12-20T02:09:04;90.93;;;47.50;;
61640;SDS011;62201;49.966;8.342;2022-12-20T02:17:03;98.10;;;46.23;;
61640;SDS011;62201;49.966;8.342;2022-12-20T02:22:15;95.73;;;45.73;;
61640;SDS011;62201;49.966;8.342;2022-12-20T02:25:13;89.40;;;46.23;;
61640;SDS011;62201;49.966;8.342;2022-12-20T02:31:10;86.97;;;44.47;;
61640;SDS011;62201;49.966;8.342;2022-12-20T02:33:41;90.87;;;44.83;;
61640;SDS011;62201;49.966;8.342;2022-12-20T02:36:10;87.23;;;43.57;;
61640;SDS011;62201;49.966;8.342;2022-12-20T02:38:36;87.83;;;44.47;;
61640;SDS011;62201;49.966;8.342;2022-12-20T02:41:05;86.40;;;43.93;;
61640;SDS011;62201;49.966;8.342;2022-12-20T02:43:35;87.28;;;42.97;;
61640;SDS011;62201;49.966;8.342;2022-12-20T02:46:23;87.20;;;42.47;;
61640;SDS011;62201;49.966;8.342;2022-12-20T02:48:51;95.30;;;44.17;;
61640;SDS011;62201;49.966;8.342;2022-12-20T02:51:22;88.87;;;45.10;;
61640;SDS011;62201;49.966;8.342;2022-12-20T02:53:48;79.63;;;42.43;;
61640;SDS011;62201;49.966;8.342;2022-12-20T02:56:27;88.57;;;44.60;;
61640;SDS011;62201;49.966;8.342;2022-12-20T02:59:07;90.27;;;44.13;;
61640;SDS011;62201;49.966;8.342;2022-12-20T03:01:49;91.57;;;45.43;;
61640;SDS011;62201;49.966;8.342;2022-12-20T03:04:17;84.33;;;44.27;;
61640;SDS011;62201;49.966;8.342;2022-12-20T03:09:43;86.47;;;42.37;;
61640;SDS011;62201;49.966;8.342;2022-12-20T03:12:09;90.80;;;43.27;;
61640;SDS011;62201;49.966;8.342;2022-12-20T03:14:36;83.93;;;42.77;;
61640;SDS011;62201;49.966;8.342;2022-12-20T03:17:03;94.33;;;45.70;;
61640;SDS011;62201;49.966;8.342;2022-12-20T03:19:29;82.67;;;42.63;;
61640;SDS011;62201;49.966;8.342;2022-12-20T03:21:54;87.00;;;44.27;;
61640;SDS011;62201;49.966;8.342;2022-12-20T03:24:20;90.33;;;43.47;;
61640;SDS011;62201;49.966;8.342;2022-12-20T03:26:46;85.60;;;42.80;;
61640;SDS011;62201;49.966;8.342;2022-12-20T03:29:12;87.80;;;43.33;;
61640;SDS011;62201;49.966;8.342;2022-12-20T03:31:37;87.13;;;42.97;;
61640;SDS011;62201;49.966;8.342;2022-12-20T03:34:03;77.80;;;40.97;;
61640;SDS011;62201;49.966;8.342;2022-12-20T03:36:28;81.73;;;42.07;;
61640;SDS011;62201;49.966;8.342;2022-12-20T03:38:54;85.73;;;41.57;;
61640;SDS011;62201;49.966;8.342;2022-12-20T03:41:20;78.83;;;39.97;;
61640;SDS011;62201;49.966;8.342;2022-12-20T03:43:47;75.03;;;40.57;;
61640;SDS011;62201;49.966;8.342;2022-12-20T03:46:13;75.40;;;38.07;;
61640;SDS011;62201;49.966;8.342;2022-12-20T03:48:39;78.10;;;40.83;;
61640;SDS011;62201;49.966;8.342;2022-12-20T03:51:05;76.00;;;40.40;;
61640;SDS011;62201;49.966;8.342;2022-12-20T03:53:30;79.83;;;41.77;;
61640;SDS011;62201;49.966;8.342;2022-12-20T03:55:56;83.63;;;42.93;;
61640;SDS011;62201;49.966;8.342;2022-12-20T03:58:21;83.93;;;41.93;;
61640;SDS011;62201;49.966;8.342;2022-12-20T04:00:47;82.00;;;41.47;;
61640;SDS011;62201;49.966;8.342;2022-12-20T04:03:12;80.80;;;40.17;;
61640;SDS011;62201;49.966;8.342;2022-12-20T04:05:38;80.93;;;40.40;;
61640;SDS011;62201;49.966;8.342;2022-12-20T04:08:03;73.13;;;40.20;;
61640;SDS011;62201;49.966;8.342;2022-12-20T04:10:29;80.37;;;40.67;;
61640;SDS011;62201;49.966;8.342;2022-12-20T04:12:54;78.93;;;41.23;;
61640;SDS011;62201;49.966;8.342;2022-12-20T04:15:20;80.33;;;41.03;;
61640;SDS011;62201;49.966;8.342;2022-12-20T04:17:45;85.80;;;43.23;;
61640;SDS011;62201;49.966;8.342;2022-12-20T04:20:12;80.17;;;41.33;;
61640;SDS011;62201;49.966;8.342;2022-12-20T04:22:46;80.93;;;39.63;;
61640;SDS011;62201;49.966;8.342;2022-12-20T04:25:12;87.77;;;41.87;;
61640;SDS011;62201;49.966;8.342;2022-12-20T04:27:37;81.47;;;41.93;;
61640;SDS011;62201;49.966;8.342;2022-12-20T04:30:03;84.67;;;43.80;;
61640;SDS011;62201;49.966;8.342;2022-12-20T04:32:28;82.83;;;42.20;;
61640;SDS011;62201;49.966;8.342;2022-12-20T04:34:54;81.87;;;41.63;;
61640;SDS011;62201;49.966;8.342;2022-12-20T04:37:19;77.07;;;39.97;;
61640;SDS011;62201;49.966;8.342;2022-12-20T04:39:45;79.17;;;41.63;;
61640;SDS011;62201;49.966;8.342;2022-12-20T04:42:10;78.03;;;40.97;;
61640;SDS011;62201;49.966;8.342;2022-12-20T04:44:35;82.10;;;42.47;;
61640;SDS011;62201;49.966;8.342;2022-12-20T04:47:01;89.43;;;46.93;;
61640;SDS011;62201;49.966;8.342;2022-12-20T04:49:26;90.00;;;46.03;;
61640;SDS011;62201;49.966;8.342;2022-12-20T04:51:52;89.90;;;44.43;;
61640;SDS011;62201;49.966;8.342;2022-12-20T04:54:17;91.13;;;44.83;;
61640;SDS011;62201;49.966;8.342;2022-12-20T04:56:43;91.77;;;44.57;;
61640;SDS011;62201;49.966;8.342;2022-12-20T04:59:08;87.97;;;43.07;;
61640;SDS011;62201;49.966;8.342;2022-12-20T05:01:34;92.00;;;45.97;;
61640;SDS011;62201;49.966;8.342;2022-12-20T05:04:00;83.77;;;43.03;;
61640;SDS011;62201;49.966;8.342;2022-12-20T05:06:26;89.17;;;44.67;;
61640;SDS011;62201;49.966;8.342;2022-12-20T05:08:51;86.50;;;44.43;;
61640;SDS011;62201;49.966;8.342;2022-12-20T05:11:16;79.70;;;43.20;;
61640;SDS011;62201;49.966;8.342;2022-12-20T05:13:42;81.17;;;41.80;;
61640;SDS011;62201;49.966;8.342;2022-12-20T05:16:07;82.17;;;41.30;;
61640;SDS011;62201;49.966;8.342;2022-12-20T05:18:33;79.87;;;40.97;;
61640;SDS011;62201;49.966;8.342;2022-12-20T05:20:59;74.07;;;40.57;;
61640;SDS011;62201;49.966;8.342;2022-12-20T05:23:43;77.43;;;40.37;;
61640;SDS011;62201;49.966;8.342;2022-12-20T05:26:28;77.30;;;40.30;;
61640;SDS011;62201;49.966;8.342;2022-12-20T05:28:56;72.07;;;39.27;;
61640;SDS011;62201;49.966;8.342;2022-12-20T05:31:21;84.30;;;42.27;;
61640;SDS011;62201;49.966;8.342;2022-12-20T05:33:47;80.73;;;42.17;;
61640;SDS011;62201;49.966;8.342;2022-12-20T05:36:12;77.20;;;41.23;;
61640;SDS011;62201;49.966;8.342;2022-12-20T05:38:38;80.00;;;42.13;;
61640;SDS011;62201;49.966;8.342;2022-12-20T05:41:03;75.10;;;39.83;;
61640;SDS011;62201;49.966;8.342;2022-12-20T05:43:30;77.30;;;41.33;;
61640;SDS011;62201;49.966;8.342;2022-12-20T05:45:56;79.50;;;42.13;;
61640;SDS011;62201;49.966;8.342;2022-12-20T05:48:21;81.37;;;40.77;;
61640;SDS011;62201;49.966;8.342;2022-12-20T05:50:47;73.40;;;39.33;;
61640;SDS011;62201;49.966;8.342;2022-12-20T05:53:13;79.67;;;39.17;;
61640;SDS011;62201;49.966;8.342;2022-12-20T05:55:43;79.13;;;40.43;;
61640;SDS011;62201;49.966;8.342;2022-12-20T05:58:09;77.07;;;40.20;;
61640;SDS011;62201;49.966;8.342;2022-12-20T06:00:37;76.97;;;39.03;;
61640;SDS011;62201;49.966;8.342;2022-12-20T06:03:06;75.03;;;39.10;;
61640;SDS011;62201;49.966;8.342;2022-12-20T06:05:33;72.97;;;39.10;;
61640;SDS011;62201;49.966;8.342;2022-12-20T06:07:59;75.20;;;39.20;;
61640;SDS011;62201;49.966;8.342;2022-12-20T06:10:24;88.93;;;43.10;;
61640;SDS011;62201;49.966;8.342;2022-12-20T06:12:50;103.60;;;51.33;;
61640;SDS011;62201;49.966;8.342;2022-12-20T06:15:15;100.07;;;48.33;;
61640;SDS011;62201;49.966;8.342;2022-12-20T06:17:41;101.53;;;48.57;;
61640;SDS011;62201;49.966;8.342;2022-12-20T06:20:06;94.23;;;45.23;;
61640;SDS011;62201;49.966;8.342;2022-12-20T06:22:32;96.20;;;45.63;;
61640;SDS011;62201;49.966;8.342;2022-12-20T06:24:58;81.10;;;41.73;;
61640;SDS011;62201;49.966;8.342;2022-12-20T06:27:24;81.97;;;41.30;;
61640;SDS011;62201;49.966;8.342;2022-12-20T06:29:49;82.60;;;42.33;;
61640;SDS011;62201;49.966;8.342;2022-12-20T06:32:18;82.67;;;43.27;;
61640;SDS011;62201;49.966;8.342;2022-12-20T06:34:44;85.23;;;41.33;;
61640;SDS011;62201;49.966;8.342;2022-12-20T06:37:09;81.37;;;42.03;;
61640;SDS011;62201;49.966;8.342;2022-12-20T06:39:35;81.63;;;42.23;;
61640;SDS011;62201;49.966;8.342;2022-12-20T06:42:00;79.90;;;41.23;;
61640;SDS011;62201;49.966;8.342;2022-12-20T06:44:25;79.47;;;40.40;;
61640;SDS011;62201;49.966;8.342;2022-12-20T06:46:51;72.93;;;39.37;;
61640;SDS011;62201;49.966;8.342;2022-12-20T06:49:16;73.97;;;39.10;;
61640;SDS011;62201;49.966;8.342;2022-12-20T06:51:42;77.07;;;40.27;;
61640;SDS011;62201;49.966;8.342;2022-12-20T06:54:07;77.27;;;38.13;;
61640;SDS011;62201;49.966;8.342;2022-12-20T06:56:32;72.47;;;38.37;;
61640;SDS011;62201;49.966;8.342;2022-12-20T06:58:58;77.17;;;39.50;;
61640;SDS011;62201;49.966;8.342;2022-12-20T07:01:23;72.20;;;37.63;;
61640;SDS011;62201;49.966;8.342;2022-12-20T07:03:49;74.23;;;38.33;;
61640;SDS011;62201;49.966;8.342;2022-12-20T07:06:14;79.43;;;40.03;;
61640;SDS011;62201;49.966;8.342;2022-12-20T07:08:40;74.93;;;40.60;;
61640;SDS011;62201;49.966;8.342;2022-12-20T07:11:05;75.87;;;40.10;;
61640;SDS011;62201;49.966;8.342;2022-12-20T07:13:32;75.93;;;39.47;;
61640;SDS011;62201;49.966;8.342;2022-12-20T07:15:58;76.27;;;38.97;;
61640;SDS011;62201;49.966;8.342;2022-12-20T07:18:25;74.17;;;37.63;;
61640;SDS011;62201;49.966;8.342;2022-12-20T07:20:50;73.20;;;38.50;;
61640;SDS011;62201;49.966;8.342;2022-12-20T07:23:16;87.63;;;41.40;;
61640;SDS011;62201;49.966;8.342;2022-12-20T07:25:42;84.13;;;42.33;;
61640;SDS011;62201;49.966;8.342;2022-12-20T07:28:08;81.97;;;41.53;;
61640;SDS011;62201;49.966;8.342;2022-12-20T07:30:33;80.93;;;40.97;;
61640;SDS011;62201;49.966;8.342;2022-12-20T07:32:59;79.03;;;40.63;;
61640;SDS011;62201;49.966;8.342;2022-12-20T07:35:24;89.67;;;42.27;;
61640;SDS011;62201;49.966;8.342;2022-12-20T07:37:50;79.30;;;40.60;;
61640;SDS011;62201;49.966;8.342;2022-12-20T07:40:16;86.53;;;41.63;;
61640;SDS011;62201;49.966;8.342;2022-12-20T07:42:41;86.23;;;42.80;;
61640;SDS011;62201;49.966;8.342;2022-12-20T07:45:07;82.03;;;40.43;;
61640;SDS011;62201;49.966;8.342;2022-12-20T07:47:32;84.07;;;41.40;;
61640;SDS011;62201;49.966;8.342;2022-12-20T07:49:59;88.57;;;41.60;;
61640;SDS011;62201;49.966;8.342;2022-12-20T07:52:25;86.10;;;41.60;;
61640;SDS011;62201;49.966;8.342;2022-12-20T07:54:53;73.93;;;40.13;;
61640;SDS011;62201;49.966;8.342;2022-12-20T07:57:23;83.20;;;41.27;;
61640;SDS011;62201;49.966;8.342;2022-12-20T07:59:55;89.57;;;43.65;;
61640;SDS011;62201;49.966;8.342;2022-12-20T08:02:27;81.63;;;42.27;;
61640;SDS011;62201;49.966;8.342;2022-12-20T08:05:06;89.17;;;42.73;;
61640;SDS011;62201;49.966;8.342;2022-12-20T08:07:33;82.73;;;43.57;;
61640;SDS011;62201;49.966;8.342;2022-12-20T08:10:01;79.57;;;42.17;;
61640;SDS011;62201;49.966;8.342;2022-12-20T08:12:28;85.23;;;41.90;;
61640;SDS011;62201;49.966;8.342;2022-12-20T08:14:55;74.77;;;38.97;;
61640;SDS011;62201;49.966;8.342;2022-12-20T08:17:22;79.23;;;38.63;;
61640;SDS011;62201;49.966;8.342;2022-12-20T08:19:47;66.33;;;35.20;;
61640;SDS011;62201;49.966;8.342;2022-12-20T08:22:15;75.00;;;38.77;;
61640;SDS011;62201;49.966;8.342;2022-12-20T08:24:44;82.90;;;42.37;;
61640;SDS011;62201;49.966;8.342;2022-12-20T08:27:09;79.83;;;41.10;;
61640;SDS011;62201;49.966;8.342;2022-12-20T08:29:35;75.93;;;39.83;;
61640;SDS011;62201;49.966;8.342;2022-12-20T08:32:00;73.10;;;37.90;;
61640;SDS011;62201;49.966;8.342;2022-12-20T08:34:26;73.47;;;36.13;;
61640;SDS011;62201;49.966;8.342;2022-12-20T08:36:51;70.53;;;37.43;;
61640;SDS011;62201;49.966;8.342;2022-12-20T08:39:17;77.27;;;38.50;;
61640;SDS011;62201;49.966;8.342;2022-12-20T08:41:42;80.13;;;40.53;;
61640;SDS011;62201;49.966;8.342;2022-12-20T08:44:08;77.93;;;39.50;;
61640;SDS011;62201;49.966;8.342;2022-12-20T08:46:34;72.07;;;38.40;;
61640;SDS011;62201;49.966;8.342;2022-12-20T08:49:01;69.90;;;36.60;;
61640;SDS011;62201;49.966;8.342;2022-12-20T08:51:27;63.60;;;35.10;;
61640;SDS011;62201;49.966;8.342;2022-12-20T08:53:53;70.97;;;36.17;;
61640;SDS011;62201;49.966;8.342;2022-12-20T08:56:18;63.13;;;34.50;;
61640;SDS011;62201;49.966;8.342;2022-12-20T08:58:44;63.17;;;35.67;;
61640;SDS011;62201;49.966;8.342;2022-12-20T09:01:14;64.17;;;35.20;;
61640;SDS011;62201;49.966;8.342;2022-12-20T09:03:41;64.23;;;34.63;;
61640;SDS011;62201;49.966;8.342;2022-12-20T09:06:08;67.27;;;37.07;;
61640;SDS011;62201;49.966;8.342;2022-12-20T09:08:35;65.40;;;35.53;;
61640;SDS011;62201;49.966;8.342;2022-12-20T09:11:21;60.43;;;35.80;;
61640;SDS011;62201;49.966;8.342;2022-12-20T09:13:50;70.63;;;36.13;;
61640;SDS011;62201;49.966;8.342;2022-12-20T09:16:17;66.63;;;34.70;;
61640;SDS011;62201;49.966;8.342;2022-12-20T09:18:48;59.87;;;32.27;;
61640;SDS011;62201;49.966;8.342;2022-12-20T09:21:18;63.65;;;33.13;;
61640;SDS011;62201;49.966;8.342;2022-12-20T09:23:44;67.50;;;36.70;;
61640;SDS011;62201;49.966;8.342;2022-12-20T09:26:11;68.03;;;34.30;;
61640;SDS011;62201;49.966;8.342;2022-12-20T09:28:37;61.80;;;33.17;;
61640;SDS011;62201;49.966;8.342;2022-12-20T09:31:04;63.60;;;32.43;;
61640;SDS011;62201;49.966;8.342;2022-12-20T09:33:33;65.00;;;32.60;;
61640;SDS011;62201;49.966;8.342;2022-12-20T09:35:59;51.93;;;30.80;;
61640;SDS011;62201;49.966;8.342;2022-12-20T09:38:26;59.57;;;33.93;;
61640;SDS011;62201;49.966;8.342;2022-12-20T09:40:54;61.23;;;32.97;;
61640;SDS011;62201;49.966;8.342;2022-12-20T09:43:23;59.03;;;32.07;;
61640;SDS011;62201;49.966;8.342;2022-12-20T09:45:52;56.10;;;31.90;;
61640;SDS011;62201;49.966;8.342;2022-12-20T09:48:22;57.08;;;31.17;;
61640;SDS011;62201;49.966;8.342;2022-12-20T09:59:50;58.70;;;31.40;;
61640;SDS011;62201;49.966;8.342;2022-12-20T10:02:19;55.33;;;31.93;;
61640;SDS011;62201;49.966;8.342;2022-12-20T10:04:47;59.43;;;31.07;;
61640;SDS011;62201;49.966;8.342;2022-12-20T10:07:34;58.47;;;31.33;;
61640;SDS011;62201;49.966;8.342;2022-12-20T10:12:47;53.20;;;31.40;;
61640;SDS011;62201;49.966;8.342;2022-12-20T10:23:29;51.63;;;31.07;;
61640;SDS011;62201;49.966;8.342;2022-12-20T10:26:04;62.40;;;33.33;;
61640;SDS011;62201;49.966;8.342;2022-12-20T10:28:34;55.60;;;32.20;;
61640;SDS011;62201;49.966;8.342;2022-12-20T10:31:06;54.63;;;31.67;;
61640;SDS011;62201;49.966;8.342;2022-12-20T10:33:36;57.47;;;33.37;;
61640;SDS011;62201;49.966;8.342;2022-12-20T10:38:54;57.53;;;32.27;;
61640;SDS011;62201;49.966;8.342;2022-12-20T10:41:22;62.27;;;32.60;;
61640;SDS011;62201;49.966;8.342;2022-12-20T10:44:00;63.70;;;34.50;;
61640;SDS011;62201;49.966;8.342;2022-12-20T10:46:41;58.47;;;33.47;;
61640;SDS011;62201;49.966;8.342;2022-12-20T10:51:58;54.37;;;30.57;;
61640;SDS011;62201;49.966;8.342;2022-12-20T10:56:57;47.80;;;30.23;;
61640;SDS011;62201;49.966;8.342;2022-12-20T11:01:51;58.37;;;33.80;;
61640;SDS011;62201;49.966;8.342;2022-12-20T11:04:35;57.50;;;32.57;;
61640;SDS011;62201;49.966;8.342;2022-12-20T11:07:03;55.57;;;32.53;;
61640;SDS011;62201;49.966;8.342;2022-12-20T11:09:51;56.37;;;31.23;;
61640;SDS011;62201;49.966;8.342;2022-12-20T11:12:19;56.90;;;31.77;;
61640;SDS011;62201;49.966;8.342;2022-12-20T11:14:45;49.50;;;30.90;;
61640;SDS011;62201;49.966;8.342;2022-12-20T11:17:18;47.40;;;30.03;;
61640;SDS011;62201;49.966;8.342;2022-12-20T11:25:48;49.13;;;28.25;;
61640;SDS011;62201;49.966;8.342;2022-12-20T11:29:22;49.53;;;28.85;;
61640;SDS011;62201;49.966;8.342;2022-12-20T11:33:58;45.40;;;26.70;;
61640;SDS011;62201;49.966;8.342;2022-12-20T11:36:51;47.37;;;28.60;;
61640;SDS011;62201;49.966;8.342;2022-12-20T11:39:47;47.07;;;28.20;;
61640;SDS011;62201;49.966;8.342;2022-12-20T11:47:57;43.63;;;27.67;;
61640;SDS011;62201;49.966;8.342;2022-12-20T11:56:15;50.43;;;29.30;;
61640;SDS011;62201;49.966;8.342;2022-12-20T12:01:16;53.60;;;28.57;;
61640;SDS011;62201;49.966;8.342;2022-12-20T12:04:09;49.60;;;28.10;;
61640;SDS011;62201;49.966;8.342;2022-12-20T12:06:37;51.23;;;29.50;;
61640;SDS011;62201;49.966;8.342;2022-12-20T12:09:23;45.67;;;28.67;;
61640;SDS011;62201;49.966;8.342;2022-12-20T12:14:48;49.03;;;28.50;;
61640;SDS011;62201;49.966;8.342;2022-12-20T12:17:38;47.10;;;27.63;;
61640;SDS011;62201;49.966;8.342;2022-12-20T12:22:52;53.60;;;27.17;;
61640;SDS011;62201;49.966;8.342;2022-12-20T12:27:48;45.43;;;26.00;;
61640;SDS011;62201;49.966;8.342;2022-12-20T12:30:14;40.87;;;24.07;;
61640;SDS011;62201;49.966;8.342;2022-12-20T12:32:53;43.77;;;26.53;;
61640;SDS011;62201;49.966;8.342;2022-12-20T12:46:43;45.40;;;25.67;;
61640;SDS011;62201;49.966;8.342;2022-12-20T12:49:15;51.13;;;33.43;;
61640;SDS011;62201;49.966;8.342;2022-12-20T12:51:52;51.13;;;29.83;;
61640;SDS011;62201;49.966;8.342;2022-12-20T12:54:22;52.63;;;28.50;;
61640;SDS011;62201;49.966;8.342;2022-12-20T12:56:52;46.23;;;27.70;;
61640;SDS011;62201;49.966;8.342;2022-12-20T13:04:28;44.13;;;27.83;;
61640;SDS011;62201;49.966;8.342;2022-12-20T13:06:56;45.17;;;26.97;;
61640;SDS011;62201;49.966;8.342;2022-12-20T13:11:48;197.83;;;96.03;;
61640;SDS011;62201;49.966;8.342;2022-12-20T13:19:37;48.60;;;27.83;;
61640;SDS011;62201;49.966;8.342;2022-12-20T13:25:00;46.03;;;27.93;;
61640;SDS011;62201;49.966;8.342;2022-12-20T13:27:28;46.57;;;27.23;;
61640;SDS011;62201;49.966;8.342;2022-12-20T13:32:50;47.47;;;27.80;;
61640;SDS011;62201;49.966;8.342;2022-12-20T13:40:39;51.43;;;29.90;;
61640;SDS011;62201;49.966;8.342;2022-12-20T13:45:49;45.13;;;27.80;;
61640;SDS011;62201;49.966;8.342;2022-12-20T13:48:19;48.83;;;29.83;;
61640;SDS011;62201;49.966;8.342;2022-12-20T13:50:54;47.07;;;28.47;;
61640;SDS011;62201;49.966;8.342;2022-12-20T13:53:21;44.00;;;28.67;;
61640;SDS011;62201;49.966;8.342;2022-12-20T13:55:49;42.20;;;25.73;;
61640;SDS011;62201;49.966;8.342;2022-12-20T13:58:16;43.67;;;27.70;;
61640;SDS011;62201;49.966;8.342;2022-12-20T14:00:42;45.90;;;28.20;;
61640;SDS011;62201;49.966;8.342;2022-12-20T14:03:12;46.03;;;28.17;;
61640;SDS011;62201;49.966;8.342;2022-12-20T14:05:46;70.37;;;39.47;;
61640;SDS011;62201;49.966;8.342;2022-12-20T14:08:16;90.10;;;51.47;;
61640;SDS011;62201;49.966;8.342;2022-12-20T14:13:22;47.23;;;28.50;;
61640;SDS011;62201;49.966;8.342;2022-12-20T14:16:22;48.40;;;29.33;;
61640;SDS011;62201;49.966;8.342;2022-12-20T14:19:15;63.23;;;35.17;;
61640;SDS011;62201;49.966;8.342;2022-12-20T14:22:31;60.67;;;36.43;;
61640;SDS011;62201;49.966;8.342;2022-12-20T14:24:32;76.43;;;42.00;;
61640;SDS011;62201;49.966;8.342;2022-12-20T14:33:41;53.70;;;32.60;;
61640;SDS011;62201;49.966;8.342;2022-12-20T14:36:20;53.50;;;31.67;;
61640;SDS011;62201;49.966;8.342;2022-12-20T14:42:51;60.10;;;32.60;;
61640;SDS011;62201;49.966;8.342;2022-12-20T14:45:28;156.97;;;73.00;;
61640;SDS011;62201;49.966;8.342;2022-12-20T14:48:17;127.37;;;62.10;;
61640;SDS011;62201;49.966;8.342;2022-12-20T14:53:55;57.00;;;33.87;;
61640;SDS011;62201;49.966;8.342;2022-12-20T14:56:26;48.20;;;30.43;;
61640;SDS011;62201;49.966;8.342;2022-12-20T14:59:23;62.93;;;36.63;;
61640;SDS011;62201;49.966;8.342;2022-12-20T15:08:27;54.23;;;31.67;;
61640;SDS011;62201;49.966;8.342;2022-12-20T15:11:19;52.57;;;32.47;;
61640;SDS011;62201;49.966;8.342;2022-12-20T15:13:54;54.13;;;32.20;;
61640;SDS011;62201;49.966;8.342;2022-12-20T15:16:22;49.70;;;30.63;;
61640;SDS011;62201;49.966;8.342;2022-12-20T15:25:25;51.07;;;30.43;;
61640;SDS011;62201;49.966;8.342;2022-12-20T15:27:51;48.90;;;31.67;;
61640;SDS011;62201;49.966;8.342;2022-12-20T15:37:48;48.63;;;31.70;;
61640;SDS011;62201;49.966;8.342;2022-12-20T15:39:47;57.07;;;32.87;;
61640;SDS011;62201;49.966;8.342;2022-12-20T15:42:34;62.83;;;37.17;;
61640;SDS011;62201;49.966;8.342;2022-12-20T15:45:21;64.63;;;39.00;;
61640;SDS011;62201;49.966;8.342;2022-12-20T15:47:57;72.17;;;41.43;;
61640;SDS011;62201;49.966;8.342;2022-12-20T15:53:41;66.70;;;39.73;;
61640;SDS011;62201;49.966;8.342;2022-12-20T15:59:47;62.67;;;36.73;;
61640;SDS011;62201;49.966;8.342;2022-12-20T16:02:38;55.67;;;34.60;;
61640;SDS011;62201;49.966;8.342;2022-12-20T16:08:08;56.20;;;33.97;;
61640;SDS011;62201;49.966;8.342;2022-12-20T16:10:34;53.90;;;34.23;;
61640;SDS011;62201;49.966;8.342;2022-12-20T16:13:27;51.90;;;34.78;;
61640;SDS011;62201;49.966;8.342;2022-12-20T16:16:23;55.77;;;33.83;;
61640;SDS011;62201;49.966;8.342;2022-12-20T16:19:33;59.80;;;36.50;;
61640;SDS011;62201;49.966;8.342;2022-12-20T16:22:26;64.43;;;40.37;;
61640;SDS011;62201;49.966;8.342;2022-12-20T16:25:01;56.43;;;36.33;;
61640;SDS011;62201;49.966;8.342;2022-12-20T16:31:09;59.93;;;37.27;;
61640;SDS011;62201;49.966;8.342;2022-12-20T16:33:57;55.13;;;36.63;;
61640;SDS011;62201;49.966;8.342;2022-12-20T16:36:32;54.37;;;34.60;;
61640;SDS011;62201;49.966;8.342;2022-12-20T16:39:01;55.77;;;34.93;;
61640;SDS011;62201;49.966;8.342;2022-12-20T16:41:36;56.77;;;34.53;;
61640;SDS011;62201;49.966;8.342;2022-12-20T16:46:52;52.43;;;35.07;;
61640;SDS011;62201;49.966;8.342;2022-12-20T16:49:24;56.70;;;35.77;;
61640;SDS011;62201;49.966;8.342;2022-12-20T16:52:21;61.53;;;35.90;;
61640;SDS011;62201;49.966;8.342;2022-12-20T16:58:05;66.50;;;40.87;;
61640;SDS011;62201;49.966;8.342;2022-12-20T17:08:04;60.03;;;38.37;;
61640;SDS011;62201;49.966;8.342;2022-12-20T17:13:57;64.37;;;36.70;;
61640;SDS011;62201;49.966;8.342;2022-12-20T17:22:54;62.90;;;36.03;;
61640;SDS011;62201;49.966;8.342;2022-12-20T17:31:41;53.70;;;35.40;;
61640;SDS011;62201;49.966;8.342;2022-12-20T17:34:40;59.42;;;39.08;;
61640;SDS011;62201;49.966;8.342;2022-12-20T17:37:52;60.05;;;37.60;;
61640;SDS011;62201;49.966;8.342;2022-12-20T17:40:20;63.47;;;37.80;;
61640;SDS011;62201;49.966;8.342;2022-12-20T17:42:46;69.03;;;40.73;;
61640;SDS011;62201;49.966;8.342;2022-12-20T17:45:30;65.67;;;41.77;;
61640;SDS011;62201;49.966;8.342;2022-12-20T17:47:57;70.13;;;41.03;;
61640;SDS011;62201;49.966;8.342;2022-12-20T17:50:23;59.50;;;37.80;;